Time;durP1;ratioP1;P1;durP2;ratioP2;P2;SDS_P1;SDS_P2;PMS_P1;PMS_P2;Temp;Humidity;BMP_temperature;BMP_pressure;BME280_temperature;BME280_humidity;BME280_pressure;Samples;Min_cycle;Max_cycle;Signal;HPM_P1;HPM_P2
2021/12/10 00:00:21;;;;;;;36.65;16.60;;;;;;;3.06;100.00;99844.25;5037672;28;20111;-72
2021/12/10 00:02:47;;;;;;;44.13;18.15;;;;;;;3.08;100.00;99849.34;5044386;28;20384;-72
2021/12/10 00:05:18;;;;;;;37.95;16.45;;;;;;;3.06;100.00;99839.03;5065476;28;20033;-72
2021/12/10 00:07:44;;;;;;;34.33;16.98;;;;;;;3.09;100.00;99837.94;5044625;28;20076;-72
2021/12/10 00:10:14;;;;;;;34.75;16.92;;;;;;;3.02;100.00;99823.78;5047051;28;20490;-72
2021/12/10 00:12:49;;;;;;;38.90;17.20;;;;;;;3.07;100.00;99826.81;5041322;28;20112;-72
2021/12/10 00:15:17;;;;;;;39.92;17.05;;;;;;;3.06;100.00;99812.13;5052914;28;20029;-72
2021/12/10 00:17:43;;;;;;;38.75;16.90;;;;;;;3.06;100.00;99807.75;5042020;28;20037;-72
2021/12/10 00:20:10;;;;;;;34.95;17.23;;;;;;;3.08;100.00;99805.03;5043653;28;20113;-72
2021/12/10 00:22:46;;;;;;;32.10;14.52;;;;;;;2.97;100.00;99784.25;5048174;28;20496;-72
2021/12/10 00:25:17;;;;;;;38.85;17.60;;;;;;;2.95;100.00;99783.53;5048505;28;20115;-72
2021/12/10 00:27:43;;;;;;;33.17;14.90;;;;;;;3.08;100.00;99802.41;5053520;28;20404;-72
2021/12/10 00:30:14;;;;;;;35.38;14.05;;;;;;;3.08;100.00;99802.41;5039556;28;20174;-72
2021/12/10 00:32:50;;;;;;;28.75;14.07;;;;;;;2.97;100.00;99777.22;5043318;28;20032;-72
2021/12/10 00:35:23;;;;;;;32.70;15.07;;;;;;;3.07;100.00;99785.09;5050905;28;20516;-72
2021/12/10 00:37:49;;;;;;;36.63;15.15;;;;;;;3.06;100.00;99788.69;5051318;28;20025;-72
2021/12/10 00:40:18;;;;;;;31.23;15.52;;;;;;;3.06;100.00;99783.47;5047163;28;20029;-72
2021/12/10 00:42:44;;;;;;;33.65;16.30;;;;;;;3.03;100.00;99784.56;5052665;28;20024;-72
2021/12/10 00:45:12;;;;;;;29.48;14.13;;;;;;;2.94;100.00;99766.22;5040407;28;20044;-72
2021/12/10 00:47:38;;;;;;;30.70;16.90;;;;;;;3.04;100.00;99778.38;5042914;28;20461;-73
2021/12/10 00:50:07;;;;;;;39.60;16.58;;;;;;;3.06;100.00;99786.06;5038741;28;20054;-73
2021/12/10 00:52:33;;;;;;;37.63;16.20;;;;;;;3.06;100.00;99776.47;5043426;28;20132;-73
2021/12/10 00:54:58;;;;;;;41.15;16.88;;;;;;;2.98;100.00;99758.03;5027395;28;20561;-73
2021/12/10 00:57:23;;;;;;;29.27;14.32;;;;;;;3.09;100.00;99767.56;5040001;28;20474;-73
2021/12/10 00:59:50;;;;;;;30.52;16.23;;;;;;;3.08;100.00;99766.75;5029964;28;20048;-73
2021/12/10 01:02:19;;;;;;;37.42;16.58;;;;;;;3.09;100.00;99768.41;5047265;28;20028;-73
2021/12/10 01:04:47;;;;;;;28.48;14.45;;;;;;;2.98;100.00;99752.00;5043222;28;20021;-73
2021/12/10 01:07:16;;;;;;;34.97;15.45;;;;;;;3.07;100.00;99772.91;5046506;28;20405;-73
2021/12/10 01:09:46;;;;;;;32.28;17.25;;;;;;;2.83;100.00;99739.31;5039880;28;20143;-73
2021/12/10 01:12:23;;;;;;;33.40;15.88;;;;;;;3.11;100.00;99781.28;5040332;28;20044;-72
2021/12/10 01:15:46;;;;;;;31.55;15.52;;;;;;;2.98;100.00;99752.00;5042073;28;20095;-72
2021/12/10 01:26:22;;;;;;;40.70;14.82;;;;;;;3.07;100.00;99762.50;5034149;28;20033;-73
2021/12/10 01:28:55;;;;;;;29.60;14.65;;;;;;;3.11;100.00;99752.59;5040851;28;20075;-73
2021/12/10 01:31:21;;;;;;;30.63;13.25;;;;;;;3.11;100.00;99749.19;5035510;28;20037;-73
2021/12/10 01:33:49;;;;;;;35.60;16.10;;;;;;;3.03;100.00;99734.22;5040084;28;20037;-73
2021/12/10 01:36:15;;;;;;;37.00;14.90;;;;;;;3.11;100.00;99746.56;5026813;28;20090;-73
2021/12/10 01:38:44;;;;;;;30.83;15.63;;;;;;;3.00;100.00;99729.22;5044544;28;20040;-73
2021/12/10 01:41:13;;;;;;;25.90;14.93;;;;;;;3.09;100.00;99733.66;5039878;28;20025;-73
2021/12/10 01:43:40;;;;;;;35.20;14.77;;;;;;;3.09;100.00;99734.50;5044701;28;20024;-73
2021/12/10 01:46:13;;;;;;;30.10;15.73;;;;;;;3.09;100.00;99731.91;5034681;28;20030;-73
2021/12/10 01:48:45;;;;;;;27.80;13.90;;;;;;;3.12;100.00;99733.44;5041783;28;20124;-73
2021/12/10 01:51:15;;;;;;;25.13;12.70;;;;;;;3.10;100.00;99730.13;5053853;28;20049;-73
2021/12/10 01:53:42;;;;;;;29.20;16.27;;;;;;;3.11;100.00;99731.75;5035484;28;20509;-73
2021/12/10 01:56:14;;;;;;;31.55;14.75;;;;;;;3.11;100.00;99720.50;5045133;28;20025;-73
2021/12/10 01:58:40;;;;;;;32.05;16.10;;;;;;;3.06;100.00;99707.88;5047995;28;20032;-72
2021/12/10 02:01:09;;;;;;;21.45;11.75;;;;;;;3.07;100.00;99705.13;5020481;28;20022;-74
2021/12/10 02:03:35;;;;;;;26.42;12.70;;;;;;;3.16;100.00;99719.19;5047658;28;20496;-74
2021/12/10 02:06:01;;;;;;;38.80;15.55;;;;;;;3.06;100.00;99693.03;5055450;28;20158;-75
2021/12/10 02:08:27;;;;;;;38.08;15.77;;;;;;;3.09;100.00;99702.38;5027120;28;20033;-75
2021/12/10 02:10:53;;;;;;;33.10;15.00;;;;;;;3.19;100.00;99718.09;5041823;28;20645;-75
2021/12/10 02:13:18;;;;;;;30.45;14.68;;;;;;;3.05;100.00;99685.38;5045115;28;20385;-75
2021/12/10 02:15:44;;;;;;;46.00;15.13;;;;;;;3.19;100.00;99707.66;5045855;28;20024;-75
2021/12/10 02:18:12;;;;;;;29.88;14.73;;;;;;;3.22;100.00;99707.38;5052437;28;20043;-75
2021/12/10 02:20:53;;;;;;;32.38;14.95;;;;;;;3.21;100.00;99703.97;5061993;28;20043;-75
2021/12/10 02:23:18;;;;;;;33.78;14.43;;;;;;;3.14;100.00;99687.19;5049290;28;20028;-75
2021/12/10 02:25:44;;;;;;;23.67;13.40;;;;;;;3.19;100.00;99694.63;5041798;28;20032;-75
2021/12/10 02:28:12;;;;;;;28.33;13.60;;;;;;;3.10;100.00;99675.38;5054782;28;20494;-75
2021/12/10 02:30:39;;;;;;;32.67;13.48;;;;;;;3.19;100.00;99678.97;5044103;28;20052;-75
2021/12/10 02:33:05;;;;;;;32.65;13.70;;;;;;;3.19;100.00;99681.59;5039337;28;20033;-75
2021/12/10 02:35:31;;;;;;;28.75;13.57;;;;;;;3.00;100.00;99654.47;5051347;28;20027;-75
2021/12/10 02:37:57;;;;;;;31.92;14.63;;;;;;;3.00;100.00;99651.03;5044235;28;20033;-75
2021/12/10 02:40:24;;;;;;;33.00;14.75;;;;;;;3.07;100.00;99673.00;5022996;28;20083;-74
2021/12/10 02:42:51;;;;;;;25.92;13.43;;;;;;;3.04;100.00;99668.06;5039660;28;20025;-75
2021/12/10 02:45:20;;;;;;;25.38;12.93;;;;;;;2.92;100.00;99645.63;5045239;28;20025;-75
2021/12/10 02:47:47;;;;;;;28.30;13.82;;;;;;;3.02;100.00;99659.56;5052070;28;20038;-75
2021/12/10 02:50:15;;;;;;;23.08;13.68;;;;;;;3.02;100.00;99649.94;5041041;28;20436;-75
2021/12/10 02:52:41;;;;;;;29.40;16.25;;;;;;;2.83;100.00;99618.59;5037671;28;20039;-75
2021/12/10 02:55:15;;;;;;;32.72;15.43;;;;;;;3.01;100.00;99644.88;5063049;28;20510;-74
2021/12/10 02:57:43;;;;;;;26.60;13.93;;;;;;;2.97;100.00;99644.31;5037294;28;20053;-74
2021/12/10 03:00:13;;;;;;;38.20;15.52;;;;;;;2.98;100.00;99637.31;5049900;28;20484;-74
2021/12/10 03:02:40;;;;;;;36.78;14.20;;;;;;;3.02;100.00;99638.69;5051984;28;20024;-74
2021/12/10 03:05:08;;;;;;;29.83;14.63;;;;;;;3.04;100.00;99642.00;5043878;28;20371;-74
2021/12/10 03:07:36;;;;;;;44.00;17.05;;;;;;;2.94;100.00;99634.16;5046613;28;20083;-75
2021/12/10 03:10:05;;;;;;;31.50;15.88;;;;;;;2.95;100.00;99634.97;5053402;28;20033;-75
2021/12/10 03:12:31;;;;;;;36.10;16.33;;;;;;;3.01;100.00;99642.28;5049922;28;20033;-74
2021/12/10 03:14:58;;;;;;;24.58;13.30;;;;;;;3.01;100.00;99650.09;5040424;28;20393;-74
2021/12/10 03:17:30;;;;;;;32.72;13.68;;;;;;;2.84;100.00;99615.84;5044159;28;20120;-74
2021/12/10 03:19:56;;;;;;;35.53;14.57;;;;;;;3.02;100.00;99646.53;5045890;28;20016;-75
2021/12/10 03:22:23;;;;;;;28.20;15.35;;;;;;;3.03;100.00;99645.59;5045962;28;20033;-75
2021/12/10 03:24:52;;;;;;;34.10;13.70;;;;;;;2.90;100.00;99627.56;5046414;28;20016;-74
2021/12/10 03:27:21;;;;;;;24.95;11.70;;;;;;;3.04;100.00;99647.22;5049767;28;20523;-74
2021/12/10 03:29:48;;;;;;;27.00;11.95;;;;;;;2.99;100.00;99641.59;5041330;28;20024;-75
2021/12/10 03:32:20;;;;;;;24.08;11.55;;;;;;;2.70;100.00;99590.16;5041281;28;20092;-75
2021/12/10 03:34:46;;;;;;;25.10;10.90;;;;;;;3.02;100.00;99634.31;5034297;28;20017;-75
2021/12/10 03:37:13;;;;;;;23.58;10.68;;;;;;;3.03;100.00;99624.72;5029452;28;20116;-75
2021/12/10 03:39:39;;;;;;;19.15;9.50;;;;;;;3.00;100.00;99625.78;5039554;28;20056;-74
2021/12/10 03:42:06;;;;;;;25.25;8.70;;;;;;;3.00;100.00;99615.38;5041607;28;20131;-74
2021/12/10 03:44:33;;;;;;;19.98;8.88;;;;;;;3.01;100.00;99617.03;5038417;28;20492;-74
2021/12/10 03:46:59;;;;;;;19.25;9.23;;;;;;;2.96;100.00;99600.97;5046072;28;20037;-75
2021/12/10 03:49:25;;;;;;;25.90;10.07;;;;;;;2.87;100.00;99594.75;5039894;28;20056;-75
2021/12/10 03:51:51;;;;;;;24.00;10.18;;;;;;;2.99;100.00;99608.50;5043188;28;20052;-74
2021/12/10 03:54:17;;;;;;;19.20;9.25;;;;;;;2.99;100.00;99607.69;5042795;28;20374;-74
2021/12/10 03:56:43;;;;;;;18.25;9.57;;;;;;;2.93;100.00;99603.00;5035609;28;20048;-73
2021/12/10 03:59:13;;;;;;;20.02;8.57;;;;;;;2.94;100.00;99608.09;5047562;28;20034;-73
2021/12/10 04:01:44;;;;;;;11.13;7.63;;;;;;;2.94;100.00;99597.66;5042449;28;20039;-74
2021/12/10 04:04:14;;;;;;;14.77;8.55;;;;;;;2.79;100.00;99581.56;5038348;28;20024;-74
2021/12/10 04:06:40;;;;;;;19.00;9.48;;;;;;;2.86;100.00;99593.09;5039324;28;20031;-74
2021/12/10 04:09:07;;;;;;;18.67;8.48;;;;;;;2.92;100.00;99614.38;5045513;28;20109;-74
2021/12/10 04:11:32;;;;;;;22.02;10.63;;;;;;;2.91;100.00;99610.94;5044541;28;20029;-75
2021/12/10 04:13:59;;;;;;;15.90;7.00;;;;;;;2.88;100.00;99600.78;5044532;28;20052;-75
2021/12/10 04:16:29;;;;;;;16.27;7.80;;;;;;;2.86;100.00;99598.31;5044721;28;20405;-75
2021/12/10 04:18:58;;;;;;;16.83;8.73;;;;;;;2.77;100.00;99588.69;5052259;28;20366;-75
2021/12/10 04:21:23;;;;;;;17.55;8.00;;;;;;;2.76;100.00;99575.78;5046964;28;20061;-74
2021/12/10 04:23:49;;;;;;;18.67;8.60;;;;;;;2.87;100.00;99581.75;5030939;28;20107;-74
2021/12/10 04:26:18;;;;;;;14.82;8.93;;;;;;;2.92;100.00;99590.91;5053525;28;20430;-74
2021/12/10 04:28:43;;;;;;;18.42;7.30;;;;;;;2.86;100.00;99582.69;5043295;28;20029;-74
2021/12/10 04:31:13;;;;;;;21.27;8.82;;;;;;;2.87;100.00;99589.56;5045608;28;20040;-75
2021/12/10 04:33:39;;;;;;;15.38;8.43;;;;;;;2.91;100.00;99590.09;5048870;28;20028;-75
2021/12/10 04:36:05;;;;;;;14.07;9.27;;;;;;;2.92;100.00;99583.09;5047771;28;20038;-73
2021/12/10 04:38:33;;;;;;;12.85;7.45;;;;;;;2.93;100.00;99577.75;5042609;28;20464;-74
2021/12/10 04:41:02;;;;;;;21.30;9.25;;;;;;;2.93;100.00;99582.16;5051913;28;20047;-74
2021/12/10 04:43:29;;;;;;;12.88;7.38;;;;;;;2.79;100.00;99549.47;5047480;28;20029;-75
2021/12/10 04:45:57;;;;;;;18.83;8.45;;;;;;;2.95;100.00;99575.03;5045100;28;20422;-75
2021/12/10 04:48:24;;;;;;;20.30;9.18;;;;;;;2.87;100.00;99554.84;5037284;28;20059;-75
2021/12/10 04:50:51;;;;;;;19.92;9.07;;;;;;;2.93;100.00;99558.69;5042286;28;20045;-75
2021/12/10 04:53:16;;;;;;;18.35;10.73;;;;;;;2.98;100.00;99564.31;5040914;28;20033;-75
2021/12/10 04:55:43;;;;;;;17.05;9.38;;;;;;;2.97;100.00;99558.28;5037753;28;20033;-74
2021/12/10 04:58:09;;;;;;;17.85;10.30;;;;;;;2.96;100.00;99556.66;5048668;28;20048;-74
2021/12/10 05:00:45;;;;;;;13.73;7.78;;;;;;;2.96;100.00;99555.81;5046563;28;20033;-74
2021/12/10 05:03:12;;;;;;;18.63;10.13;;;;;;;2.96;100.00;99548.84;5040602;28;20017;-74
2021/12/10 05:05:40;;;;;;;14.63;9.63;;;;;;;2.97;100.00;99557.47;5049340;28;20408;-75
2021/12/10 05:08:07;;;;;;;23.08;11.75;;;;;;;2.98;100.00;99556.50;5047798;28;20489;-75
2021/12/10 05:10:33;;;;;;;17.58;10.13;;;;;;;2.96;100.00;99548.84;5039769;28;20037;-75
2021/12/10 05:12:59;;;;;;;20.30;11.55;;;;;;;2.94;100.00;99542.09;5042422;28;20513;-74
2021/12/10 05:15:30;;;;;;;25.25;12.90;;;;;;;2.86;100.00;99540.97;5044813;28;20055;-74
2021/12/10 05:17:56;;;;;;;23.92;13.25;;;;;;;2.91;100.00;99537.97;5047128;28;20032;-74
2021/12/10 05:20:32;;;;;;;25.95;11.30;;;;;;;2.90;100.00;99536.34;5043700;28;20025;-74
2021/12/10 05:22:57;;;;;;;22.95;10.85;;;;;;;2.89;100.00;99521.66;5045020;28;20099;-74
2021/12/10 05:25:26;;;;;;;21.80;11.75;;;;;;;2.87;100.00;99513.97;5058922;28;20112;-74
2021/12/10 05:27:51;;;;;;;28.33;13.05;;;;;;;2.81;100.00;99511.06;5045981;28;20040;-74
2021/12/10 05:30:24;;;;;;;21.23;11.25;;;;;;;2.61;100.00;99478.91;5035581;28;20030;-75
2021/12/10 05:32:50;;;;;;;22.90;11.13;;;;;;;2.72;100.00;99501.44;5049998;28;20017;-75
2021/12/10 05:35:16;;;;;;;15.85;10.57;;;;;;;2.64;100.00;99502.94;5045340;28;20493;-74
2021/12/10 05:37:42;;;;;;;26.60;13.40;;;;;;;2.60;100.00;99490.31;5038065;28;20025;-74
2021/12/10 05:40:12;;;;;;;23.80;13.55;;;;;;;2.55;100.00;99495.06;5044216;28;20037;-75
2021/12/10 05:42:37;;;;;;;15.88;10.27;;;;;;;2.44;100.00;99489.03;5044536;28;20025;-74
2021/12/10 05:45:04;;;;;;;19.27;10.85;;;;;;;2.46;100.00;99502.72;5041818;28;20614;-74
2021/12/10 05:47:30;;;;;;;21.17;11.15;;;;;;;2.41;100.00;99491.88;5037036;28;20112;-74
2021/12/10 05:49:55;;;;;;;22.02;12.15;;;;;;;2.28;100.00;99478.25;5041836;28;20163;-74
2021/12/10 05:52:21;;;;;;;35.70;12.55;;;;;;;2.35;100.00;99495.03;5042311;28;20037;-76
2021/12/10 05:54:47;;;;;;;28.27;13.38;;;;;;;2.32;100.00;99505.66;5029695;28;20036;-75
2021/12/10 05:57:13;;;;;;;23.65;14.40;;;;;;;2.30;100.00;99501.56;5041491;28;20036;-75
2021/12/10 05:59:38;;;;;;;27.27;13.05;;;;;;;2.26;100.00;99511.41;5041128;28;20057;-74
2021/12/10 06:02:04;;;;;;;22.60;12.50;;;;;;;2.23;100.00;99507.28;5038133;28;20032;-75
2021/12/10 06:04:30;;;;;;;30.45;14.52;;;;;;;2.13;100.00;99495.97;5038732;28;20037;-75
2021/12/10 06:06:56;;;;;;;29.88;14.52;;;;;;;2.27;100.00;99513.06;5044371;28;20120;-74
2021/12/10 06:09:23;;;;;;;25.75;12.45;;;;;;;2.24;100.00;99506.34;5040438;28;20114;-74
2021/12/10 06:11:48;;;;;;;31.83;14.90;;;;;;;2.15;100.00;99498.47;5038647;28;20036;-74
2021/12/10 06:14:14;;;;;;;28.42;15.32;;;;;;;2.24;100.00;99510.69;5039848;28;20517;-75
2021/12/10 06:16:39;;;;;;;32.55;17.13;;;;;;;2.24;100.00;99508.09;5041632;28;20044;-74
2021/12/10 06:19:06;;;;;;;29.02;15.75;;;;;;;2.24;100.00;99497.69;5037640;28;20029;-74
2021/12/10 06:21:33;;;;;;;30.45;16.17;;;;;;;2.25;100.00;99504.56;5041743;28;20025;-74
2021/12/10 06:23:59;;;;;;;37.15;19.88;;;;;;;2.19;100.00;99497.25;5042282;28;20033;-74
2021/12/10 06:26:24;;;;;;;23.40;14.60;;;;;;;2.22;100.00;99499.59;5032687;28;20449;-74
2021/12/10 06:28:50;;;;;;;29.88;16.38;;;;;;;2.22;100.00;99507.41;5045358;28;20456;-74
2021/12/10 06:31:18;;;;;;;31.85;14.77;;;;;;;2.22;100.00;99502.19;5029570;28;20040;-74
2021/12/10 06:33:43;;;;;;;24.13;14.10;;;;;;;2.16;100.00;99489.72;5049588;28;20032;-74
2021/12/10 06:36:09;;;;;;;27.20;15.20;;;;;;;2.17;100.00;99501.75;5034705;28;20503;-74
2021/12/10 06:38:35;;;;;;;23.08;13.35;;;;;;;2.15;100.00;99503.66;5040937;28;20047;-74
2021/12/10 06:41:02;;;;;;;27.85;14.20;;;;;;;2.08;100.00;99497.34;5046403;28;20406;-74
2021/12/10 06:43:28;;;;;;;44.00;14.63;;;;;;;2.09;100.00;99504.19;5034204;28;20029;-74
2021/12/10 06:45:53;;;;;;;27.15;13.15;;;;;;;2.09;100.00;99504.19;5040893;28;20091;-74
2021/12/10 06:48:22;;;;;;;27.88;14.52;;;;;;;2.09;100.00;99501.56;5038481;28;20087;-74
2021/12/10 06:50:50;;;;;;;27.58;14.98;;;;;;;2.04;100.00;99492.38;5035941;28;20049;-74
2021/12/10 06:53:19;;;;;;;22.00;12.60;;;;;;;2.05;100.00;99501.03;5036037;28;20028;-75
2021/12/10 06:55:46;;;;;;;27.55;14.40;;;;;;;2.04;100.00;99501.97;5038612;28;20035;-76
2021/12/10 06:58:11;;;;;;;20.83;11.90;;;;;;;2.05;100.00;99498.44;5039805;28;20394;-74
2021/12/10 07:00:45;;;;;;;21.88;13.13;;;;;;;1.99;100.00;99499.75;5034396;28;20211;-74
2021/12/10 07:03:14;;;;;;;26.48;12.13;;;;;;;1.93;100.00;99500.25;5042540;28;20022;-74
2021/12/10 07:05:39;;;;;;;21.88;13.52;;;;;;;1.89;100.00;99493.66;5053234;28;20059;-74
2021/12/10 07:08:05;;;;;;;25.38;11.80;;;;;;;1.84;100.00;99501.84;5054164;28;20036;-74
2021/12/10 07:10:31;;;;;;;21.13;11.65;;;;;;;1.70;100.00;99485.72;5040919;28;20636;-73
2021/12/10 07:12:57;;;;;;;20.25;9.85;;;;;;;1.72;100.00;99499.44;5044057;28;20119;-73
2021/12/10 07:15:22;;;;;;;18.42;10.93;;;;;;;1.66;100.00;99499.97;5043023;28;20120;-73
2021/12/10 07:17:50;;;;;;;18.42;9.48;;;;;;;1.64;100.00;99505.28;5040154;28;20059;-73
2021/12/10 07:20:19;;;;;;;17.05;10.82;;;;;;;1.59;100.00;99502.19;5045094;28;20490;-73
2021/12/10 07:22:45;;;;;;;21.52;10.38;;;;;;;1.55;100.00;99517.25;5040478;28;20022;-74
2021/12/10 07:25:10;;;;;;;18.60;10.02;;;;;;;1.44;100.00;99497.31;5045062;28;20389;-74
2021/12/10 07:27:36;;;;;;;16.30;9.32;;;;;;;1.48;100.00;99510.91;5021982;28;20037;-74
2021/12/10 07:30:03;;;;;;;19.48;9.68;;;;;;;1.42;100.00;99527.00;5045270;28;20044;-74
2021/12/10 07:32:28;;;;;;;15.75;8.23;;;;;;;1.39;100.00;99515.06;5035955;28;20429;-74
2021/12/10 07:34:54;;;;;;;26.38;9.70;;;;;;;1.28;100.00;99503.88;5045939;28;20033;-74
2021/12/10 07:37:21;;;;;;;15.85;8.50;;;;;;;1.34;100.00;99513.78;5046929;28;20029;-74
2021/12/10 07:39:47;;;;;;;19.17;9.50;;;;;;;1.30;100.00;99512.38;5044476;28;20044;-74
2021/12/10 07:42:12;;;;;;;16.55;9.35;;;;;;;1.19;100.00;99501.06;5056529;28;20054;-74
2021/12/10 07:44:38;;;;;;;18.33;10.00;;;;;;;1.19;100.00;99505.44;5045034;28;20029;-74
2021/12/10 07:47:08;;;;;;;18.38;9.77;;;;;;;1.10;100.00;99499.19;5048662;28;20373;-74
2021/12/10 07:49:37;;;;;;;12.07;7.60;;;;;;;1.12;100.00;99499.91;5044680;28;20036;-74
2021/12/10 07:52:06;;;;;;;15.10;9.18;;;;;;;1.15;100.00;99517.84;5039493;28;20034;-74
2021/12/10 07:54:31;;;;;;;14.52;8.40;;;;;;;1.09;100.00;99505.38;5041021;28;20055;-74
2021/12/10 07:56:57;;;;;;;15.88;9.57;;;;;;;1.15;100.00;99514.41;5026890;28;20033;-74
2021/12/10 07:59:22;;;;;;;16.55;8.63;;;;;;;1.16;100.00;99516.91;5045106;28;20038;-74
2021/12/10 08:01:48;;;;;;;17.65;9.90;;;;;;;1.13;100.00;99517.16;5043770;28;20052;-74
2021/12/10 08:04:13;;;;;;;17.83;10.27;;;;;;;1.12;100.00;99504.28;5032517;28;20037;-74
2021/12/10 08:06:38;;;;;;;17.13;9.45;;;;;;;1.10;100.00;99512.19;5046075;28;20413;-74
2021/12/10 08:09:07;;;;;;;18.65;9.90;;;;;;;1.06;100.00;99513.38;5020997;28;20064;-74
2021/12/10 08:11:33;;;;;;;15.70;8.27;;;;;;;1.07;100.00;99512.44;5051058;28;20025;-75
2021/12/10 08:13:58;;;;;;;19.58;9.27;;;;;;;1.05;100.00;99508.34;5040202;28;20044;-74
2021/12/10 08:16:25;;;;;;;18.58;9.25;;;;;;;0.81;100.00;99462.56;5042983;28;20128;-74
2021/12/10 08:18:52;;;;;;;18.48;8.73;;;;;;;1.03;100.00;99500.66;5044952;28;20022;-74
2021/12/10 08:21:18;;;;;;;19.27;9.00;;;;;;;1.04;100.00;99502.28;5041110;28;20051;-74
2021/12/10 08:23:44;;;;;;;17.27;10.43;;;;;;;1.07;100.00;99512.44;5042143;28;20026;-74
2021/12/10 08:26:12;;;;;;;12.27;8.15;;;;;;;1.01;100.00;99492.16;5045796;28;20043;-74
2021/12/10 08:28:39;;;;;;;13.45;7.90;;;;;;;1.08;100.00;99508.88;5039229;28;20021;-74
2021/12/10 08:31:05;;;;;;;18.00;8.05;;;;;;;1.04;100.00;99499.69;5036824;28;20036;-74
2021/12/10 08:33:31;;;;;;;8.45;5.72;;;;;;;1.05;100.00;99500.53;5032812;28;20029;-74
2021/12/10 08:36:04;;;;;;;15.60;7.65;;;;;;;0.96;100.00;99486.50;5043777;28;20129;-74
2021/12/10 08:38:30;;;;;;;15.27;8.20;;;;;;;1.14;100.00;99517.97;5044835;28;20033;-74
2021/12/10 08:41:03;;;;;;;18.33;7.95;;;;;;;1.06;100.00;99478.78;5047593;28;20037;-74
2021/12/10 08:43:32;;;;;;;13.38;7.43;;;;;;;1.22;100.00;99506.03;5041563;28;20393;-74
2021/12/10 08:45:59;;;;;;;11.50;8.18;;;;;;;1.26;100.00;99503.16;5030837;28;20037;-74
2021/12/10 08:48:27;;;;;;;17.17;8.13;;;;;;;1.27;100.00;99507.44;5042874;28;20329;-73
2021/12/10 08:50:54;;;;;;;10.30;6.43;;;;;;;1.15;100.00;99484.06;5042505;28;20132;-74
2021/12/10 08:53:20;;;;;;;11.68;6.43;;;;;;;1.19;100.00;99490.66;5039508;28;20130;-75
2021/12/10 08:55:49;;;;;;;11.40;7.25;;;;;;;1.37;100.00;99519.56;5035900;28;20025;-74
2021/12/10 08:58:16;;;;;;;12.93;6.22;;;;;;;1.30;100.00;99494.19;5041019;28;20132;-74
2021/12/10 09:00:54;;;;;;;11.13;6.45;;;;;;;1.74;100.00;99526.13;5049860;28;20063;-73
2021/12/10 09:03:19;;;;;;;13.13;6.50;;;;;;;1.77;100.00;99518.09;5038333;28;20478;-73
2021/12/10 09:05:45;;;;;;;9.50;6.53;;;;;;;1.91;100.00;99528.19;5056524;28;20113;-74
2021/12/10 09:08:11;;;;;;;11.65;6.50;;;;;;;2.27;100.00;99526.06;5046210;28;20340;-74
2021/12/10 09:10:39;;;;;;;11.68;7.22;;;;;;;2.37;100.00;99513.91;5045065;28;20482;-73
2021/12/10 09:13:12;;;;;;;8.98;5.70;;;;;;;2.51;100.00;99536.19;5036605;28;20029;-73
2021/12/10 09:15:38;;;;;;;12.32;6.35;;;;;;;2.70;99.52;99539.81;5054291;28;20029;-73
2021/12/10 09:18:06;;;;;;;9.93;6.20;;;;;;;2.75;98.60;99541.09;5043848;28;20489;-73
2021/12/10 09:20:39;;;;;;;11.10;5.70;;;;;;;2.74;97.34;99542.03;5048335;28;20082;-73
2021/12/10 09:23:11;;;;;;;17.58;6.53;;;;;;;3.01;97.57;99532.81;5042271;28;20489;-73
2021/12/10 09:25:39;;;;;;;10.73;5.60;;;;;;;3.50;95.76;99528.47;5045944;28;20028;-75
2021/12/10 09:28:05;;;;;;;13.32;5.85;;;;;;;4.09;92.80;99524.88;5042753;28;20481;-73
2021/12/10 09:30:32;;;;;;;8.43;5.65;;;;;;;4.59;90.25;99525.53;5045475;28;20084;-73
2021/12/10 09:32:59;;;;;;;14.65;6.80;;;;;;;5.04;87.93;99525.56;5042647;28;20029;-73
2021/12/10 09:35:27;;;;;;;8.25;5.55;;;;;;;5.18;86.31;99500.69;5048663;28;20032;-73
2021/12/10 09:37:52;;;;;;;9.13;4.90;;;;;;;5.46;85.25;99518.97;5038747;28;20052;-73
2021/12/10 09:40:23;;;;;;;9.82;5.63;;;;;;;6.20;84.09;99527.44;5038389;28;20026;-73
2021/12/10 09:42:48;;;;;;;9.35;6.15;;;;;;;6.86;80.96;99524.16;5048613;28;20027;-73
2021/12/10 09:45:19;;;;;;;7.25;5.03;;;;;;;6.84;78.84;99515.63;5055865;28;20033;-75
2021/12/10 09:47:45;;;;;;;;;;;;;;;7.05;77.61;99525.69;5042348;28;20061;-73
2021/12/10 09:50:12;;;;;;;8.55;4.90;;;;;;;6.62;78.16;99522.25;5044517;28;20026;-73
2021/12/10 09:52:38;;;;;;;6.53;4.75;;;;;;;6.84;77.76;99528.75;5043964;28;20095;-74
2021/12/10 09:55:10;;;;;;;6.28;4.22;;;;;;;6.71;77.72;99521.31;5045790;28;20068;-73
2021/12/10 09:57:37;;;;;;;9.07;4.90;;;;;;;6.83;77.31;99527.09;5051196;28;20029;-75
2021/12/10 10:00:15;;;;;;;8.68;5.00;;;;;;;6.35;78.58;99526.69;5049481;28;20036;-73
2021/12/10 10:02:41;;;;;;;6.72;4.78;;;;;;;6.74;80.23;99521.00;5045270;28;20028;-73
2021/12/10 10:05:09;;;;;;;8.65;4.85;;;;;;;7.51;76.96;99505.13;5051936;28;20048;-74
2021/12/10 10:07:35;;;;;;;9.55;4.25;;;;;;;8.02;73.11;99494.44;5042693;28;20035;-74
2021/12/10 10:10:23;;;;;;;6.15;4.57;;;;;;;6.94;76.37;99508.44;5033863;28;20032;-74
2021/12/10 10:12:51;;;;;;;6.78;5.00;;;;;;;6.30;79.09;99512.44;5039544;28;20112;-73
2021/12/10 10:15:22;;;;;;;6.07;4.47;;;;;;;5.90;81.44;99506.75;5042028;28;20025;-73
2021/12/10 10:17:48;;;;;;;6.25;4.43;;;;;;;6.61;80.20;99490.94;5046812;28;20060;-73
2021/12/10 10:20:17;;;;;;;6.32;4.55;;;;;;;6.66;77.88;99509.66;5046788;28;20104;-73
2021/12/10 10:22:44;;;;;;;9.10;5.25;;;;;;;7.29;76.56;99492.63;5045990;28;20028;-73
2021/12/10 10:25:11;;;;;;;7.30;4.85;;;;;;;6.96;77.02;99498.59;5046828;28;20436;-74
2021/12/10 10:27:39;;;;;;;6.97;4.47;;;;;;;6.36;77.69;99517.06;5029282;28;20064;-73
2021/12/10 10:30:08;;;;;;;6.50;4.72;;;;;;;6.23;79.40;99506.13;5040449;28;20024;-73
2021/12/10 10:32:35;;;;;;;6.60;4.70;;;;;;;6.31;79.85;99500.97;5054956;28;20033;-73
2021/12/10 10:35:13;;;;;;;7.35;4.65;;;;;;;6.62;79.91;99497.81;5044689;28;20065;-74
2021/12/10 10:37:39;;;;;;;9.65;5.28;;;;;;;7.24;76.60;99503.59;5039018;28;20029;-76
2021/12/10 10:40:07;;;;;;;6.53;4.90;;;;;;;7.17;76.54;99503.44;5042392;28;20489;-74
2021/12/10 10:42:33;;;;;;;6.53;4.05;;;;;;;7.37;75.33;99490.81;5048842;28;20041;-74
2021/12/10 10:45:05;;;;;;;7.63;4.70;;;;;;;7.05;77.13;99498.63;5061647;28;20101;-74
2021/12/10 10:47:31;;;;;;;7.13;4.68;;;;;;;6.97;76.92;99499.44;5046071;28;20136;-74
2021/12/10 10:50:11;;;;;;;8.18;4.65;;;;;;;7.13;75.84;99511.78;5048605;28;20080;-74
2021/12/10 10:52:38;;;;;;;5.63;4.10;;;;;;;6.65;77.16;99505.41;5070044;28;20025;-74
2021/12/10 10:55:10;;;;;;;5.97;4.65;;;;;;;6.45;79.52;99503.00;5059674;28;20544;-74
2021/12/10 10:57:35;;;;;;;7.60;5.35;;;;;;;6.30;79.94;99502.75;5046894;28;20496;-74
2021/12/10 11:00:17;;;;;;;7.82;4.97;;;;;;;6.00;80.39;99483.09;5044248;28;20036;-73
2021/12/10 11:02:58;;;;;;;8.20;4.45;;;;;;;6.60;78.81;99498.00;5045322;28;20023;-74
2021/12/10 11:05:24;;;;;;;7.72;4.63;;;;;;;6.89;77.93;99491.56;5042150;28;20037;-74
2021/12/10 11:07:53;;;;;;;8.18;4.63;;;;;;;6.86;77.12;99508.44;5042337;28;20037;-74
2021/12/10 11:10:35;;;;;;;8.73;4.45;;;;;;;6.35;77.59;99481.31;5040004;28;20060;-74
2021/12/10 11:13:20;;;;;;;6.50;4.13;;;;;;;5.56;81.16;99515.28;5036841;28;20136;-75
2021/12/10 11:16:02;;;;;;;7.05;4.43;;;;;;;5.20;83.62;99511.84;5036511;28;20554;-73
2021/12/10 11:18:37;;;;;;;6.85;4.70;;;;;;;5.18;83.91;99523.41;5052852;28;20366;-73
2021/12/10 11:21:03;;;;;;;8.25;4.20;;;;;;;4.79;85.35;99500.97;5044958;28;20074;-73
2021/12/10 11:23:31;;;;;;;5.85;3.42;;;;;;;4.70;85.60;99518.34;5039026;28;20022;-73
2021/12/10 11:25:57;;;;;;;8.45;5.00;;;;;;;4.53;86.42;99501.63;5037497;28;20025;-74
2021/12/10 11:28:28;;;;;;;26.10;6.00;;;;;;;4.50;87.13;99507.13;5043028;28;20049;-74
2021/12/10 11:31:02;;;;;;;;;;;;;;;4.40;87.90;99516.81;5038378;28;20036;-72
2021/12/10 11:33:31;;;;;;;8.00;4.65;;;;;;;4.06;88.58;99521.69;5038727;28;20391;-73
2021/12/10 11:36:05;;;;;;;7.90;4.03;;;;;;;3.89;89.63;99502.34;5040756;28;20032;-73